sensor_id;sensor_type;location;lat;lon;timestamp;P1;durP1;ratioP1;P2;durP2;ratioP2
19854;SDS011;10088;47.946;2.532;2023-03-24T00:02:06;1.73;;;1.63;;
19854;SDS011;10088;47.946;2.532;2023-03-24T00:04:32;1.87;;;0.97;;
19854;SDS011;10088;47.946;2.532;2023-03-24T00:06:57;2.73;;;1.60;;
19854;SDS011;10088;47.946;2.532;2023-03-24T00:09:26;1.67;;;1.30;;
19854;SDS011;10088;47.946;2.532;2023-03-24T00:11:52;1.33;;;1.00;;
19854;SDS011;10088;47.946;2.532;2023-03-24T00:14:18;1.40;;;1.17;;
19854;SDS011;10088;47.946;2.532;2023-03-24T00:16:43;1.43;;;1.03;;
19854;SDS011;10088;47.946;2.532;2023-03-24T00:19:09;1.73;;;1.00;;
19854;SDS011;10088;47.946;2.532;2023-03-24T00:21:35;1.03;;;0.93;;
19854;SDS011;10088;47.946;2.532;2023-03-24T00:24:01;1.23;;;1.00;;
19854;SDS011;10088;47.946;2.532;2023-03-24T00:26:27;1.03;;;0.90;;
19854;SDS011;10088;47.946;2.532;2023-03-24T00:28:54;1.47;;;0.70;;
19854;SDS011;10088;47.946;2.532;2023-03-24T00:31:19;1.63;;;0.60;;
19854;SDS011;10088;47.946;2.532;2023-03-24T00:33:45;1.57;;;1.00;;
19854;SDS011;10088;47.946;2.532;2023-03-24T00:36:14;2.63;;;0.60;;
19854;SDS011;10088;47.946;2.532;2023-03-24T00:38:41;0.97;;;0.87;;
19854;SDS011;10088;47.946;2.532;2023-03-24T00:41:06;0.53;;;0.50;;
19854;SDS011;10088;47.946;2.532;2023-03-24T00:43:32;1.13;;;0.70;;
19854;SDS011;10088;47.946;2.532;2023-03-24T00:45:58;2.13;;;0.60;;
19854;SDS011;10088;47.946;2.532;2023-03-24T00:48:26;1.00;;;0.80;;
19854;SDS011;10088;47.946;2.532;2023-03-24T00:50:51;1.03;;;0.90;;
19854;SDS011;10088;47.946;2.532;2023-03-24T00:53:17;0.90;;;0.80;;
19854;SDS011;10088;47.946;2.532;2023-03-24T00:55:43;0.67;;;0.67;;
19854;SDS011;10088;47.946;2.532;2023-03-24T00:58:15;1.23;;;0.73;;
19854;SDS011;10088;47.946;2.532;2023-03-24T01:00:42;1.00;;;0.90;;
19854;SDS011;10088;47.946;2.532;2023-03-24T01:03:08;1.57;;;0.90;;
19854;SDS011;10088;47.946;2.532;2023-03-24T01:05:33;0.70;;;0.60;;
19854;SDS011;10088;47.946;2.532;2023-03-24T01:08:00;1.03;;;0.77;;
19854;SDS011;10088;47.946;2.532;2023-03-24T01:10:34;0.70;;;0.70;;
19854;SDS011;10088;47.946;2.532;2023-03-24T01:13:00;1.90;;;0.70;;
19854;SDS011;10088;47.946;2.532;2023-03-24T01:15:30;0.60;;;0.60;;
19854;SDS011;10088;47.946;2.532;2023-03-24T01:17:57;0.63;;;0.63;;
19854;SDS011;10088;47.946;2.532;2023-03-24T01:20:26;1.37;;;0.70;;
19854;SDS011;10088;47.946;2.532;2023-03-24T01:22:51;1.53;;;0.80;;
19854;SDS011;10088;47.946;2.532;2023-03-24T01:25:19;0.67;;;0.67;;
19854;SDS011;10088;47.946;2.532;2023-03-24T01:27:45;0.83;;;0.43;;
19854;SDS011;10088;47.946;2.532;2023-03-24T01:30:11;1.97;;;0.70;;
19854;SDS011;10088;47.946;2.532;2023-03-24T01:32:37;0.60;;;0.50;;
19854;SDS011;10088;47.946;2.532;2023-03-24T01:35:03;1.43;;;0.70;;
19854;SDS011;10088;47.946;2.532;2023-03-24T01:37:28;1.50;;;0.80;;
19854;SDS011;10088;47.946;2.532;2023-03-24T01:39:53;0.70;;;0.63;;
19854;SDS011;10088;47.946;2.532;2023-03-24T01:42:21;1.23;;;0.60;;
19854;SDS011;10088;47.946;2.532;2023-03-24T01:44:47;0.60;;;0.60;;
19854;SDS011;10088;47.946;2.532;2023-03-24T01:47:13;0.70;;;0.70;;
19854;SDS011;10088;47.946;2.532;2023-03-24T01:50:00;0.70;;;0.60;;
19854;SDS011;10088;47.946;2.532;2023-03-24T01:52:25;0.40;;;0.40;;
19854;SDS011;10088;47.946;2.532;2023-03-24T01:54:56;0.60;;;0.53;;
19854;SDS011;10088;47.946;2.532;2023-03-24T01:57:27;0.80;;;0.77;;
19854;SDS011;10088;47.946;2.532;2023-03-24T01:59:55;0.57;;;0.57;;
19854;SDS011;10088;47.946;2.532;2023-03-24T02:02:21;0.90;;;0.70;;
19854;SDS011;10088;47.946;2.532;2023-03-24T02:04:48;0.90;;;0.60;;
19854;SDS011;10088;47.946;2.532;2023-03-24T02:09:46;0.77;;;0.67;;
19854;SDS011;10088;47.946;2.532;2023-03-24T02:12:12;1.33;;;0.80;;
19854;SDS011;10088;47.946;2.532;2023-03-24T02:14:37;0.70;;;0.70;;
19854;SDS011;10088;47.946;2.532;2023-03-24T02:32:11;1.53;;;0.80;;
19854;SDS011;10088;47.946;2.532;2023-03-24T02:47:24;0.47;;;0.47;;
19854;SDS011;10088;47.946;2.532;2023-03-24T02:49:55;0.60;;;0.50;;
19854;SDS011;10088;47.946;2.532;2023-03-24T02:57:25;0.90;;;0.50;;
19854;SDS011;10088;47.946;2.532;2023-03-24T02:59:56;1.00;;;0.60;;
19854;SDS011;10088;47.946;2.532;2023-03-24T03:02:25;0.40;;;0.40;;
19854;SDS011;10088;47.946;2.532;2023-03-24T03:04:57;0.50;;;0.50;;
19854;SDS011;10088;47.946;2.532;2023-03-24T03:07:25;1.13;;;0.50;;
19854;SDS011;10088;47.946;2.532;2023-03-24T03:09:59;0.67;;;0.57;;
19854;SDS011;10088;47.946;2.532;2023-03-24T03:12:26;0.50;;;0.40;;
19854;SDS011;10088;47.946;2.532;2023-03-24T03:14:55;0.40;;;0.40;;
19854;SDS011;10088;47.946;2.532;2023-03-24T03:17:23;0.60;;;0.60;;
19854;SDS011;10088;47.946;2.532;2023-03-24T03:20:06;0.50;;;0.50;;
19854;SDS011;10088;47.946;2.532;2023-03-24T03:22:45;1.03;;;0.50;;
19854;SDS011;10088;47.946;2.532;2023-03-24T03:25:14;1.73;;;0.50;;
19854;SDS011;10088;47.946;2.532;2023-03-24T03:27:41;0.40;;;0.40;;
19854;SDS011;10088;47.946;2.532;2023-03-24T03:32:38;0.40;;;0.40;;
19854;SDS011;10088;47.946;2.532;2023-03-24T03:40:23;0.80;;;0.50;;
19854;SDS011;10088;47.946;2.532;2023-03-24T03:42:49;0.40;;;0.40;;
19854;SDS011;10088;47.946;2.532;2023-03-24T03:45:15;0.40;;;0.40;;
19854;SDS011;10088;47.946;2.532;2023-03-24T03:47:41;0.57;;;0.50;;
19854;SDS011;10088;47.946;2.532;2023-03-24T03:50:06;0.50;;;0.50;;
19854;SDS011;10088;47.946;2.532;2023-03-24T03:52:33;0.50;;;0.50;;
19854;SDS011;10088;47.946;2.532;2023-03-24T03:54:59;0.70;;;0.40;;
19854;SDS011;10088;47.946;2.532;2023-03-24T03:57:24;0.50;;;0.30;;
19854;SDS011;10088;47.946;2.532;2023-03-24T03:59:50;0.37;;;0.37;;
19854;SDS011;10088;47.946;2.532;2023-03-24T04:12:57;1.17;;;0.60;;
19854;SDS011;10088;47.946;2.532;2023-03-24T04:23:27;1.03;;;0.50;;
19854;SDS011;10088;47.946;2.532;2023-03-24T04:33:38;0.90;;;0.43;;
19854;SDS011;10088;47.946;2.532;2023-03-24T04:36:10;1.13;;;0.50;;
19854;SDS011;10088;47.946;2.532;2023-03-24T04:38:44;2.50;;;0.70;;
19854;SDS011;10088;47.946;2.532;2023-03-24T04:41:10;0.50;;;0.50;;
19854;SDS011;10088;47.946;2.532;2023-03-24T04:43:35;1.63;;;0.50;;
19854;SDS011;10088;47.946;2.532;2023-03-24T04:46:02;0.50;;;0.50;;
19854;SDS011;10088;47.946;2.532;2023-03-24T04:48:28;0.80;;;0.60;;
19854;SDS011;10088;47.946;2.532;2023-03-24T04:50:54;2.20;;;0.63;;
19854;SDS011;10088;47.946;2.532;2023-03-24T04:53:20;1.03;;;0.60;;
19854;SDS011;10088;47.946;2.532;2023-03-24T04:58:17;0.67;;;0.60;;
19854;SDS011;10088;47.946;2.532;2023-03-24T05:00:43;3.23;;;0.97;;
19854;SDS011;10088;47.946;2.532;2023-03-24T05:03:09;1.03;;;0.40;;
19854;SDS011;10088;47.946;2.532;2023-03-24T05:05:41;0.30;;;0.30;;
19854;SDS011;10088;47.946;2.532;2023-03-24T05:08:07;1.07;;;0.60;;
19854;SDS011;10088;47.946;2.532;2023-03-24T05:10:33;0.90;;;0.50;;
19854;SDS011;10088;47.946;2.532;2023-03-24T05:12:58;0.30;;;0.30;;
19854;SDS011;10088;47.946;2.532;2023-03-24T05:15:23;1.43;;;0.57;;
19854;SDS011;10088;47.946;2.532;2023-03-24T05:17:48;0.60;;;0.43;;
19854;SDS011;10088;47.946;2.532;2023-03-24T05:20:15;2.23;;;0.60;;
19854;SDS011;10088;47.946;2.532;2023-03-24T05:22:40;0.50;;;0.40;;
19854;SDS011;10088;47.946;2.532;2023-03-24T05:25:06;3.23;;;0.60;;
19854;SDS011;10088;47.946;2.532;2023-03-24T05:27:31;1.57;;;0.70;;
19854;SDS011;10088;47.946;2.532;2023-03-24T05:29:57;0.63;;;0.60;;
19854;SDS011;10088;47.946;2.532;2023-03-24T05:32:22;0.97;;;0.40;;
19854;SDS011;10088;47.946;2.532;2023-03-24T05:34:48;0.80;;;0.57;;
19854;SDS011;10088;47.946;2.532;2023-03-24T05:37:13;2.87;;;0.93;;
19854;SDS011;10088;47.946;2.532;2023-03-24T05:39:41;1.47;;;0.60;;
19854;SDS011;10088;47.946;2.532;2023-03-24T05:42:06;2.77;;;0.97;;
19854;SDS011;10088;47.946;2.532;2023-03-24T05:44:32;1.90;;;0.70;;
19854;SDS011;10088;47.946;2.532;2023-03-24T05:46:57;2.40;;;0.53;;
19854;SDS011;10088;47.946;2.532;2023-03-24T05:49:22;0.70;;;0.30;;
19854;SDS011;10088;47.946;2.532;2023-03-24T05:51:47;3.60;;;0.60;;
19854;SDS011;10088;47.946;2.532;2023-03-24T05:54:13;1.30;;;0.60;;
19854;SDS011;10088;47.946;2.532;2023-03-24T05:56:38;1.47;;;0.43;;
19854;SDS011;10088;47.946;2.532;2023-03-24T05:59:03;0.90;;;0.50;;
19854;SDS011;10088;47.946;2.532;2023-03-24T06:01:29;1.20;;;0.43;;
19854;SDS011;10088;47.946;2.532;2023-03-24T06:03:54;0.70;;;0.43;;
19854;SDS011;10088;47.946;2.532;2023-03-24T06:06:19;0.67;;;0.53;;
19854;SDS011;10088;47.946;2.532;2023-03-24T06:08:45;2.40;;;0.60;;
19854;SDS011;10088;47.946;2.532;2023-03-24T06:11:10;1.07;;;0.50;;
19854;SDS011;10088;47.946;2.532;2023-03-24T06:13:36;1.53;;;0.50;;
19854;SDS011;10088;47.946;2.532;2023-03-24T06:16:01;1.30;;;0.60;;
19854;SDS011;10088;47.946;2.532;2023-03-24T06:18:27;1.30;;;0.57;;
19854;SDS011;10088;47.946;2.532;2023-03-24T06:20:54;1.77;;;0.60;;
19854;SDS011;10088;47.946;2.532;2023-03-24T06:23:21;4.03;;;0.80;;
19854;SDS011;10088;47.946;2.532;2023-03-24T06:25:48;1.37;;;0.70;;
19854;SDS011;10088;47.946;2.532;2023-03-24T06:28:14;3.50;;;1.17;;
19854;SDS011;10088;47.946;2.532;2023-03-24T06:30:42;2.33;;;0.70;;
19854;SDS011;10088;47.946;2.532;2023-03-24T06:33:07;1.80;;;0.60;;
19854;SDS011;10088;47.946;2.532;2023-03-24T06:35:34;2.57;;;0.90;;
19854;SDS011;10088;47.946;2.532;2023-03-24T06:37:59;1.90;;;0.53;;
19854;SDS011;10088;47.946;2.532;2023-03-24T06:40:25;3.17;;;0.90;;
19854;SDS011;10088;47.946;2.532;2023-03-24T06:42:50;4.27;;;1.00;;
19854;SDS011;10088;47.946;2.532;2023-03-24T06:45:16;5.23;;;0.90;;
19854;SDS011;10088;47.946;2.532;2023-03-24T06:47:41;4.60;;;0.90;;
19854;SDS011;10088;47.946;2.532;2023-03-24T06:50:06;4.37;;;1.13;;
19854;SDS011;10088;47.946;2.532;2023-03-24T06:52:32;2.80;;;1.17;;
19854;SDS011;10088;47.946;2.532;2023-03-24T06:54:57;2.97;;;0.80;;
19854;SDS011;10088;47.946;2.532;2023-03-24T06:57:23;4.53;;;1.40;;
19854;SDS011;10088;47.946;2.532;2023-03-24T06:59:48;3.13;;;0.90;;
19854;SDS011;10088;47.946;2.532;2023-03-24T07:02:13;3.07;;;0.93;;
19854;SDS011;10088;47.946;2.532;2023-03-24T07:04:39;8.03;;;1.27;;
19854;SDS011;10088;47.946;2.532;2023-03-24T07:07:05;7.07;;;1.30;;
19854;SDS011;10088;47.946;2.532;2023-03-24T07:09:30;9.10;;;1.20;;
19854;SDS011;10088;47.946;2.532;2023-03-24T07:11:57;4.07;;;1.13;;
19854;SDS011;10088;47.946;2.532;2023-03-24T07:14:22;7.20;;;1.50;;
19854;SDS011;10088;47.946;2.532;2023-03-24T07:16:50;4.30;;;1.30;;
19854;SDS011;10088;47.946;2.532;2023-03-24T07:19:15;5.23;;;1.30;;
19854;SDS011;10088;47.946;2.532;2023-03-24T07:21:40;4.87;;;1.30;;
19854;SDS011;10088;47.946;2.532;2023-03-24T07:24:06;5.70;;;1.20;;
19854;SDS011;10088;47.946;2.532;2023-03-24T07:26:31;6.00;;;1.30;;
19854;SDS011;10088;47.946;2.532;2023-03-24T07:28:56;4.70;;;0.90;;
19854;SDS011;10088;47.946;2.532;2023-03-24T07:31:22;4.13;;;0.90;;
19854;SDS011;10088;47.946;2.532;2023-03-24T07:33:48;3.70;;;0.90;;
19854;SDS011;10088;47.946;2.532;2023-03-24T07:36:13;4.10;;;1.30;;
19854;SDS011;10088;47.946;2.532;2023-03-24T07:38:39;6.57;;;1.53;;
19854;SDS011;10088;47.946;2.532;2023-03-24T07:41:04;6.53;;;1.40;;
19854;SDS011;10088;47.946;2.532;2023-03-24T07:43:29;6.63;;;1.23;;
19854;SDS011;10088;47.946;2.532;2023-03-24T07:45:55;4.73;;;1.50;;
19854;SDS011;10088;47.946;2.532;2023-03-24T07:48:20;5.03;;;1.97;;
19854;SDS011;10088;47.946;2.532;2023-03-24T07:50:45;5.37;;;1.33;;
19854;SDS011;10088;47.946;2.532;2023-03-24T07:53:11;8.53;;;1.43;;
19854;SDS011;10088;47.946;2.532;2023-03-24T07:55:36;7.27;;;1.40;;
19854;SDS011;10088;47.946;2.532;2023-03-24T07:58:02;5.03;;;1.50;;
19854;SDS011;10088;47.946;2.532;2023-03-24T08:00:28;3.50;;;1.00;;
19854;SDS011;10088;47.946;2.532;2023-03-24T08:02:54;5.27;;;1.17;;
19854;SDS011;10088;47.946;2.532;2023-03-24T08:05:20;6.03;;;1.40;;
19854;SDS011;10088;47.946;2.532;2023-03-24T08:07:47;5.73;;;1.27;;
19854;SDS011;10088;47.946;2.532;2023-03-24T08:10:20;6.50;;;1.70;;
19854;SDS011;10088;47.946;2.532;2023-03-24T08:12:47;6.30;;;1.80;;
19854;SDS011;10088;47.946;2.532;2023-03-24T08:15:13;4.93;;;1.37;;
19854;SDS011;10088;47.946;2.532;2023-03-24T08:17:38;5.60;;;1.77;;
19854;SDS011;10088;47.946;2.532;2023-03-24T08:20:04;5.53;;;1.57;;
19854;SDS011;10088;47.946;2.532;2023-03-24T08:22:38;4.47;;;1.57;;
19854;SDS011;10088;47.946;2.532;2023-03-24T08:25:04;8.37;;;1.97;;
19854;SDS011;10088;47.946;2.532;2023-03-24T08:27:30;9.03;;;1.50;;
19854;SDS011;10088;47.946;2.532;2023-03-24T08:29:55;6.40;;;1.90;;
19854;SDS011;10088;47.946;2.532;2023-03-24T08:32:21;5.63;;;1.93;;
19854;SDS011;10088;47.946;2.532;2023-03-24T08:34:46;6.40;;;2.10;;
19854;SDS011;10088;47.946;2.532;2023-03-24T08:37:11;7.43;;;1.80;;
19854;SDS011;10088;47.946;2.532;2023-03-24T08:39:37;8.40;;;1.20;;
19854;SDS011;10088;47.946;2.532;2023-03-24T08:42:02;9.03;;;1.77;;
19854;SDS011;10088;47.946;2.532;2023-03-24T08:44:27;7.30;;;1.73;;
19854;SDS011;10088;47.946;2.532;2023-03-24T08:46:53;5.47;;;2.10;;
19854;SDS011;10088;47.946;2.532;2023-03-24T08:49:18;7.17;;;2.03;;
19854;SDS011;10088;47.946;2.532;2023-03-24T08:51:44;5.70;;;1.97;;
19854;SDS011;10088;47.946;2.532;2023-03-24T08:54:09;6.93;;;1.80;;
19854;SDS011;10088;47.946;2.532;2023-03-24T08:56:37;9.50;;;2.10;;
19854;SDS011;10088;47.946;2.532;2023-03-24T08:59:02;3.97;;;0.97;;
19854;SDS011;10088;47.946;2.532;2023-03-24T09:01:28;12.27;;;2.43;;
19854;SDS011;10088;47.946;2.532;2023-03-24T09:03:54;8.37;;;1.73;;
19854;SDS011;10088;47.946;2.532;2023-03-24T09:06:20;6.93;;;1.40;;
19854;SDS011;10088;47.946;2.532;2023-03-24T09:08:45;5.50;;;1.50;;
19854;SDS011;10088;47.946;2.532;2023-03-24T09:11:17;7.07;;;1.73;;
19854;SDS011;10088;47.946;2.532;2023-03-24T09:13:43;6.53;;;2.23;;
19854;SDS011;10088;47.946;2.532;2023-03-24T09:16:08;9.20;;;1.50;;
19854;SDS011;10088;47.946;2.532;2023-03-24T09:18:33;6.17;;;1.73;;
19854;SDS011;10088;47.946;2.532;2023-03-24T09:20:58;6.57;;;1.70;;
19854;SDS011;10088;47.946;2.532;2023-03-24T09:23:24;3.77;;;1.17;;
19854;SDS011;10088;47.946;2.532;2023-03-24T09:25:52;4.13;;;1.10;;
19854;SDS011;10088;47.946;2.532;2023-03-24T09:28:18;6.93;;;1.60;;
19854;SDS011;10088;47.946;2.532;2023-03-24T09:30:43;5.23;;;1.63;;
19854;SDS011;10088;47.946;2.532;2023-03-24T09:33:09;7.33;;;2.30;;
19854;SDS011;10088;47.946;2.532;2023-03-24T09:35:34;6.27;;;1.67;;
19854;SDS011;10088;47.946;2.532;2023-03-24T09:37:59;6.43;;;1.50;;
19854;SDS011;10088;47.946;2.532;2023-03-24T09:40:26;6.43;;;1.30;;
19854;SDS011;10088;47.946;2.532;2023-03-24T09:43:09;7.63;;;1.67;;
19854;SDS011;10088;47.946;2.532;2023-03-24T09:45:40;5.77;;;1.30;;
19854;SDS011;10088;47.946;2.532;2023-03-24T09:48:12;5.37;;;1.83;;
19854;SDS011;10088;47.946;2.532;2023-03-24T09:56:15;5.83;;;1.57;;
19854;SDS011;10088;47.946;2.532;2023-03-24T09:58:41;7.27;;;1.77;;
19854;SDS011;10088;47.946;2.532;2023-03-24T10:01:14;7.90;;;1.93;;
19854;SDS011;10088;47.946;2.532;2023-03-24T10:03:41;8.50;;;1.90;;
19854;SDS011;10088;47.946;2.532;2023-03-24T10:06:07;7.23;;;1.97;;
19854;SDS011;10088;47.946;2.532;2023-03-24T10:08:36;7.03;;;2.00;;
19854;SDS011;10088;47.946;2.532;2023-03-24T10:16:06;6.97;;;1.70;;
19854;SDS011;10088;47.946;2.532;2023-03-24T10:21:09;5.93;;;1.97;;
19854;SDS011;10088;47.946;2.532;2023-03-24T10:31:30;10.33;;;2.30;;
19854;SDS011;10088;47.946;2.532;2023-03-24T10:33:56;9.70;;;2.63;;
19854;SDS011;10088;47.946;2.532;2023-03-24T10:36:21;4.70;;;1.30;;
19854;SDS011;10088;47.946;2.532;2023-03-24T10:38:47;6.17;;;1.77;;
19854;SDS011;10088;47.946;2.532;2023-03-24T10:41:22;8.20;;;1.53;;
19854;SDS011;10088;47.946;2.532;2023-03-24T10:43:49;6.67;;;1.63;;
19854;SDS011;10088;47.946;2.532;2023-03-24T10:46:15;6.93;;;1.77;;
19854;SDS011;10088;47.946;2.532;2023-03-24T10:48:46;3.77;;;1.70;;
19854;SDS011;10088;47.946;2.532;2023-03-24T10:53:41;6.07;;;1.73;;
19854;SDS011;10088;47.946;2.532;2023-03-24T10:56:06;6.30;;;2.27;;
19854;SDS011;10088;47.946;2.532;2023-03-24T10:58:36;6.83;;;2.47;;
19854;SDS011;10088;47.946;2.532;2023-03-24T11:01:02;6.40;;;2.37;;
19854;SDS011;10088;47.946;2.532;2023-03-24T11:03:34;11.07;;;2.70;;
19854;SDS011;10088;47.946;2.532;2023-03-24T11:06:01;6.40;;;1.50;;
19854;SDS011;10088;47.946;2.532;2023-03-24T11:08:31;9.17;;;2.17;;
19854;SDS011;10088;47.946;2.532;2023-03-24T11:10:57;5.83;;;1.60;;
19854;SDS011;10088;47.946;2.532;2023-03-24T11:18:19;5.87;;;1.73;;
19854;SDS011;10088;47.946;2.532;2023-03-24T11:20:52;9.00;;;2.70;;
19854;SDS011;10088;47.946;2.532;2023-03-24T11:28:28;6.47;;;1.60;;
19854;SDS011;10088;47.946;2.532;2023-03-24T11:30:54;5.97;;;1.60;;
19854;SDS011;10088;47.946;2.532;2023-03-24T11:35:46;6.73;;;1.50;;
19854;SDS011;10088;47.946;2.532;2023-03-24T11:38:15;5.30;;;1.57;;
19854;SDS011;10088;47.946;2.532;2023-03-24T11:40:52;4.20;;;1.47;;
19854;SDS011;10088;47.946;2.532;2023-03-24T11:43:21;5.37;;;1.30;;
19854;SDS011;10088;47.946;2.532;2023-03-24T11:45:50;7.73;;;1.93;;
19854;SDS011;10088;47.946;2.532;2023-03-24T11:51:03;6.17;;;1.90;;
19854;SDS011;10088;47.946;2.532;2023-03-24T11:53:33;6.60;;;1.90;;
19854;SDS011;10088;47.946;2.532;2023-03-24T11:56:06;6.57;;;1.90;;
19854;SDS011;10088;47.946;2.532;2023-03-24T11:58:35;6.67;;;1.80;;
19854;SDS011;10088;47.946;2.532;2023-03-24T12:14:10;5.40;;;1.50;;
19854;SDS011;10088;47.946;2.532;2023-03-24T12:22:32;6.27;;;2.33;;
19854;SDS011;10088;47.946;2.532;2023-03-24T12:24:51;7.63;;;2.23;;
19854;SDS011;10088;47.946;2.532;2023-03-24T12:27:26;7.33;;;1.87;;
19854;SDS011;10088;47.946;2.532;2023-03-24T12:42:43;5.73;;;1.77;;
19854;SDS011;10088;47.946;2.532;2023-03-24T12:45:23;6.03;;;1.50;;
19854;SDS011;10088;47.946;2.532;2023-03-24T12:58:34;5.57;;;1.47;;
19854;SDS011;10088;47.946;2.532;2023-03-24T13:03:36;4.43;;;1.03;;
19854;SDS011;10088;47.946;2.532;2023-03-24T13:06:06;4.67;;;1.47;;
19854;SDS011;10088;47.946;2.532;2023-03-24T13:08:34;3.70;;;1.50;;
19854;SDS011;10088;47.946;2.532;2023-03-24T13:11:05;8.53;;;1.77;;
19854;SDS011;10088;47.946;2.532;2023-03-24T13:13:35;6.63;;;1.87;;
19854;SDS011;10088;47.946;2.532;2023-03-24T13:18:46;3.00;;;1.37;;
19854;SDS011;10088;47.946;2.532;2023-03-24T13:21:22;4.13;;;1.40;;
19854;SDS011;10088;47.946;2.532;2023-03-24T13:24:04;7.70;;;1.40;;
19854;SDS011;10088;47.946;2.532;2023-03-24T13:37:42;6.87;;;1.37;;
19854;SDS011;10088;47.946;2.532;2023-03-24T13:40:19;4.80;;;1.50;;
19854;SDS011;10088;47.946;2.532;2023-03-24T13:43:17;4.77;;;1.20;;
19854;SDS011;10088;47.946;2.532;2023-03-24T13:45:45;2.80;;;0.83;;
19854;SDS011;10088;47.946;2.532;2023-03-24T13:48:30;5.23;;;1.20;;
19854;SDS011;10088;47.946;2.532;2023-03-24T13:51:01;3.20;;;0.90;;
19854;SDS011;10088;47.946;2.532;2023-03-24T13:53:38;6.63;;;1.27;;
19854;SDS011;10088;47.946;2.532;2023-03-24T13:56:10;5.37;;;1.30;;
19854;SDS011;10088;47.946;2.532;2023-03-24T13:58:44;2.50;;;1.00;;
19854;SDS011;10088;47.946;2.532;2023-03-24T14:06:47;2.37;;;1.03;;
19854;SDS011;10088;47.946;2.532;2023-03-24T14:11:49;4.63;;;0.90;;
19854;SDS011;10088;47.946;2.532;2023-03-24T14:17:27;6.07;;;1.20;;
19854;SDS011;10088;47.946;2.532;2023-03-24T14:22:42;4.17;;;0.97;;
19854;SDS011;10088;47.946;2.532;2023-03-24T14:25:21;3.33;;;1.10;;
19854;SDS011;10088;47.946;2.532;2023-03-24T14:28:16;3.90;;;1.17;;
19854;SDS011;10088;47.946;2.532;2023-03-24T14:31:00;1.63;;;0.90;;
19854;SDS011;10088;47.946;2.532;2023-03-24T14:33:29;6.03;;;1.37;;
19854;SDS011;10088;47.946;2.532;2023-03-24T14:36:04;4.30;;;1.07;;
19854;SDS011;10088;47.946;2.532;2023-03-24T14:38:41;4.40;;;1.00;;
19854;SDS011;10088;47.946;2.532;2023-03-24T14:41:14;4.27;;;1.40;;
19854;SDS011;10088;47.946;2.532;2023-03-24T14:54:16;1.03;;;0.40;;
19854;SDS011;10088;47.946;2.532;2023-03-24T14:56:44;2.77;;;0.40;;
19854;SDS011;10088;47.946;2.532;2023-03-24T15:02:48;2.47;;;0.90;;
19854;SDS011;10088;47.946;2.532;2023-03-24T15:07:32;4.17;;;1.00;;
19854;SDS011;10088;47.946;2.532;2023-03-24T15:09:57;2.17;;;0.60;;
19854;SDS011;10088;47.946;2.532;2023-03-24T15:12:22;1.57;;;0.60;;
19854;SDS011;10088;47.946;2.532;2023-03-24T15:14:48;1.53;;;0.60;;
19854;SDS011;10088;47.946;2.532;2023-03-24T15:17:19;3.03;;;1.03;;
19854;SDS011;10088;47.946;2.532;2023-03-24T15:19:45;2.07;;;0.60;;
19854;SDS011;10088;47.946;2.532;2023-03-24T15:22:13;2.30;;;0.80;;
19854;SDS011;10088;47.946;2.532;2023-03-24T15:24:41;4.73;;;0.90;;
19854;SDS011;10088;47.946;2.532;2023-03-24T15:29:35;3.20;;;0.70;;
19854;SDS011;10088;47.946;2.532;2023-03-24T15:32:01;1.67;;;0.60;;
19854;SDS011;10088;47.946;2.532;2023-03-24T15:34:46;1.00;;;0.47;;
19854;SDS011;10088;47.946;2.532;2023-03-24T15:37:23;1.93;;;0.70;;
19854;SDS011;10088;47.946;2.532;2023-03-24T15:39:49;2.67;;;0.87;;
19854;SDS011;10088;47.946;2.532;2023-03-24T15:42:16;1.93;;;0.50;;
19854;SDS011;10088;47.946;2.532;2023-03-24T15:44:42;5.20;;;1.00;;
19854;SDS011;10088;47.946;2.532;2023-03-24T15:47:16;2.70;;;0.90;;
19854;SDS011;10088;47.946;2.532;2023-03-24T15:49:59;2.33;;;1.07;;
19854;SDS011;10088;47.946;2.532;2023-03-24T15:55:28;2.60;;;0.90;;
19854;SDS011;10088;47.946;2.532;2023-03-24T15:57:45;4.40;;;1.20;;
19854;SDS011;10088;47.946;2.532;2023-03-24T16:00:12;4.57;;;1.40;;
19854;SDS011;10088;47.946;2.532;2023-03-24T16:02:47;5.63;;;1.27;;
19854;SDS011;10088;47.946;2.532;2023-03-24T16:05:22;3.87;;;1.70;;
19854;SDS011;10088;47.946;2.532;2023-03-24T16:07:54;4.50;;;1.00;;
19854;SDS011;10088;47.946;2.532;2023-03-24T16:10:24;6.63;;;1.67;;
19854;SDS011;10088;47.946;2.532;2023-03-24T16:12:50;3.93;;;1.43;;
19854;SDS011;10088;47.946;2.532;2023-03-24T16:15:15;4.43;;;1.63;;
19854;SDS011;10088;47.946;2.532;2023-03-24T16:17:41;5.17;;;1.27;;
19854;SDS011;10088;47.946;2.532;2023-03-24T16:20:09;4.10;;;1.17;;
19854;SDS011;10088;47.946;2.532;2023-03-24T16:22:41;5.17;;;1.03;;
19854;SDS011;10088;47.946;2.532;2023-03-24T16:25:07;7.60;;;1.53;;
19854;SDS011;10088;47.946;2.532;2023-03-24T16:27:32;3.83;;;1.20;;
19854;SDS011;10088;47.946;2.532;2023-03-24T16:29:58;6.23;;;1.87;;
19854;SDS011;10088;47.946;2.532;2023-03-24T16:32:23;3.13;;;1.17;;
19854;SDS011;10088;47.946;2.532;2023-03-24T16:34:49;2.70;;;0.80;;
19854;SDS011;10088;47.946;2.532;2023-03-24T16:37:14;7.37;;;1.40;;
19854;SDS011;10088;47.946;2.532;2023-03-24T16:39:39;3.03;;;1.03;;
19854;SDS011;10088;47.946;2.532;2023-03-24T16:42:05;3.87;;;1.23;;
19854;SDS011;10088;47.946;2.532;2023-03-24T16:44:30;2.63;;;0.93;;
19854;SDS011;10088;47.946;2.532;2023-03-24T16:46:57;4.53;;;1.47;;
19854;SDS011;10088;47.946;2.532;2023-03-24T16:49:22;4.13;;;1.37;;
19854;SDS011;10088;47.946;2.532;2023-03-24T16:51:48;10.87;;;1.07;;
19854;SDS011;10088;47.946;2.532;2023-03-24T16:54:13;5.57;;;1.20;;
19854;SDS011;10088;47.946;2.532;2023-03-24T16:56:38;5.33;;;1.80;;
19854;SDS011;10088;47.946;2.532;2023-03-24T16:59:04;4.63;;;0.90;;
19854;SDS011;10088;47.946;2.532;2023-03-24T17:01:38;3.27;;;1.10;;
19854;SDS011;10088;47.946;2.532;2023-03-24T17:06:58;2.27;;;0.77;;
19854;SDS011;10088;47.946;2.532;2023-03-24T17:09:31;5.70;;;0.97;;
19854;SDS011;10088;47.946;2.532;2023-03-24T17:12:07;4.93;;;1.10;;
19854;SDS011;10088;47.946;2.532;2023-03-24T17:14:42;3.07;;;1.20;;
19854;SDS011;10088;47.946;2.532;2023-03-24T17:17:09;3.83;;;1.03;;
19854;SDS011;10088;47.946;2.532;2023-03-24T17:19:37;6.63;;;1.20;;
19854;SDS011;10088;47.946;2.532;2023-03-24T17:22:09;2.87;;;1.10;;
19854;SDS011;10088;47.946;2.532;2023-03-24T17:24:41;4.87;;;1.40;;
19854;SDS011;10088;47.946;2.532;2023-03-24T17:27:14;3.60;;;0.80;;
19854;SDS011;10088;47.946;2.532;2023-03-24T17:29:41;2.10;;;0.63;;
19854;SDS011;10088;47.946;2.532;2023-03-24T17:32:09;3.23;;;0.93;;
19854;SDS011;10088;47.946;2.532;2023-03-24T17:34:46;5.20;;;0.83;;
19854;SDS011;10088;47.946;2.532;2023-03-24T17:37:21;4.57;;;1.00;;
19854;SDS011;10088;47.946;2.532;2023-03-24T17:39:51;2.73;;;0.80;;
19854;SDS011;10088;47.946;2.532;2023-03-24T17:42:27;2.97;;;0.70;;
19854;SDS011;10088;47.946;2.532;2023-03-24T17:45:01;0.90;;;0.40;;
19854;SDS011;10088;47.946;2.532;2023-03-24T17:47:29;1.33;;;0.50;;
19854;SDS011;10088;47.946;2.532;2023-03-24T17:49:58;0.67;;;0.50;;
19854;SDS011;10088;47.946;2.532;2023-03-24T17:52:27;1.87;;;0.70;;
19854;SDS011;10088;47.946;2.532;2023-03-24T17:54:57;3.20;;;0.83;;
19854;SDS011;10088;47.946;2.532;2023-03-24T17:57:26;3.07;;;0.70;;
19854;SDS011;10088;47.946;2.532;2023-03-24T17:59:57;1.70;;;0.80;;
19854;SDS011;10088;47.946;2.532;2023-03-24T18:02:29;3.00;;;0.57;;
19854;SDS011;10088;47.946;2.532;2023-03-24T18:04:58;4.13;;;0.60;;
19854;SDS011;10088;47.946;2.532;2023-03-24T18:07:33;2.87;;;0.60;;
19854;SDS011;10088;47.946;2.532;2023-03-24T18:10:00;2.90;;;0.77;;
19854;SDS011;10088;47.946;2.532;2023-03-24T18:12:29;2.57;;;0.90;;
19854;SDS011;10088;47.946;2.532;2023-03-24T18:14:59;2.77;;;0.60;;
19854;SDS011;10088;47.946;2.532;2023-03-24T18:17:30;3.77;;;0.80;;
19854;SDS011;10088;47.946;2.532;2023-03-24T18:20:02;5.07;;;0.97;;
19854;SDS011;10088;47.946;2.532;2023-03-24T18:22:43;4.70;;;0.70;;